Terminal Aerodrome Forecast
Issued by NWS

Home | Current Version | Previous Version | Text Only | Print | Product List | Glossary Off
Versions: 1 2 3 4 5 6 7 8 9 10 11 12 13 14

000
FTUS43 KPAH 221720
TAFOWB
TAF
KOWB 221720Z 2218/2318 06010G20KT P6SM SCT250
     FM222300 06007KT P6SM FEW150 BKN250
     FM231200 10006KT P6SM SCT070 BKN120=

USA.gov is the U.S. government's official web portal to all federal, state and local government web resources and services.